createdAt,value
2022-08-23T03:32:28.437Z,0
2022-08-23T03:33:22.725Z,0
2022-08-23T03:34:22.694Z,0
2022-08-23T03:35:22.689Z,0
2022-08-23T03:36:27.998Z,0
2022-08-23T03:37:22.678Z,0
2022-08-23T03:38:22.692Z,0
2022-08-23T03:39:22.678Z,0
2022-08-23T03:40:22.747Z,0
2022-08-23T03:41:22.673Z,0
2022-08-23T03:42:22.673Z,0
2022-08-23T03:43:22.698Z,0
2022-08-23T03:44:22.679Z,0
2022-08-23T03:45:22.680Z,0
2022-08-23T03:46:22.677Z,0
2022-08-23T03:47:23.783Z,0
2022-08-23T03:48:22.679Z,0
2022-08-23T03:49:22.673Z,0
2022-08-23T03:50:22.697Z,0
2022-08-23T03:51:22.672Z,1
2022-08-23T03:52:22.683Z,1
2022-08-23T03:53:22.681Z,3
2022-08-23T03:54:22.696Z,3
2022-08-23T03:55:22.680Z,3
2022-08-23T03:56:22.668Z,5
2022-08-23T03:57:22.684Z,7
2022-08-23T03:58:22.681Z,9
2022-08-23T03:59:22.663Z,7
2022-08-23T04:00:22.667Z,7
2022-08-23T04:01:27.867Z,12
2022-08-23T04:02:22.675Z,12
2022-08-23T04:03:22.698Z,12
2022-08-23T04:04:22.679Z,14
2022-08-23T04:05:22.679Z,18
2022-08-23T04:06:22.674Z,18
2022-08-23T04:07:22.659Z,20
2022-08-23T04:08:31.947Z,20
2022-08-23T04:09:22.654Z,25
2022-08-23T04:10:22.684Z,29
2022-08-23T04:11:22.669Z,35
2022-08-23T04:12:22.662Z,35
2022-08-23T04:13:22.702Z,40
2022-08-23T04:14:22.685Z,47
2022-08-23T04:15:22.666Z,47
2022-08-23T04:16:22.657Z,53
2022-08-23T04:17:22.672Z,57
2022-08-23T04:18:22.680Z,62
2022-08-23T04:19:22.685Z,64
2022-08-23T04:20:22.686Z,64
2022-08-23T04:21:22.668Z,86
2022-08-23T04:22:22.675Z,82
2022-08-23T04:23:22.674Z,92
2022-08-23T04:24:22.662Z,103
2022-08-23T04:25:33.339Z,108
2022-08-23T04:26:23.648Z,101
2022-08-23T04:27:22.677Z,112
2022-08-23T04:28:22.680Z,125
2022-08-23T04:29:34.020Z,143
2022-08-23T04:30:22.654Z,143
2022-08-23T04:31:22.655Z,112
2022-08-23T04:32:28.179Z,112
2022-08-23T04:33:22.686Z,114
2022-08-23T04:34:22.674Z,129
2022-08-23T04:35:22.674Z,129
2022-08-23T04:36:23.411Z,151
2022-08-23T04:37:22.668Z,138
2022-08-23T04:38:24.981Z,154
2022-08-23T04:39:22.658Z,173
2022-08-23T04:40:22.811Z,173
2022-08-23T04:41:22.673Z,180
2022-08-23T04:42:22.811Z,182
2022-08-23T04:43:22.683Z,199
2022-08-23T04:44:22.675Z,178
2022-08-23T04:45:22.674Z,178
2022-08-23T04:46:22.671Z,202
2022-08-23T04:47:22.671Z,197
2022-08-23T04:48:22.675Z,193
2022-08-23T04:49:22.673Z,221
2022-08-23T04:50:22.650Z,221
2022-08-23T09:39:22.667Z,1539
2022-08-23T09:40:22.692Z,1539
2022-08-23T09:41:22.659Z,1507
2022-08-23T09:42:22.661Z,1526
2022-08-23T09:43:22.660Z,1492
2022-08-23T09:44:22.666Z,1446
2022-08-23T09:45:22.672Z,1496
2022-08-23T09:46:22.684Z,1610
2022-08-23T09:47:22.662Z,1911
2022-08-23T09:48:22.658Z,1883
2022-08-23T09:49:22.670Z,1594
2022-08-23T09:50:22.676Z,1594
2022-08-23T09:51:22.664Z,1446
2022-08-23T09:52:22.669Z,1544
2022-08-23T09:53:22.657Z,1627
2022-08-23T09:54:22.665Z,1375
2022-08-23T09:55:22.667Z,1402
2022-08-23T09:56:22.662Z,1419
2022-08-23T09:57:22.663Z,1400
2022-08-23T09:58:22.657Z,1367
2022-08-23T09:59:25.019Z,1428
2022-08-23T10:00:22.668Z,1428
2022-08-23T10:01:22.714Z,1448
2022-08-23T10:02:22.648Z,1509
2022-08-23T10:03:22.654Z,1666
2022-08-23T10:04:22.715Z,1574
2022-08-23T10:05:22.693Z,1609
2022-08-23T10:06:22.658Z,1522
2022-08-23T10:07:22.652Z,1341
2022-08-23T10:08:22.652Z,1369
2022-08-23T10:09:22.661Z,1376
2022-08-23T10:10:22.662Z,1376
2022-08-23T10:11:22.666Z,1052
2022-08-23T10:12:22.658Z,1010
2022-08-23T10:13:22.652Z,1054
2022-08-23T10:14:23.461Z,1153
2022-08-23T10:15:22.658Z,1153
2022-08-23T10:16:22.723Z,1277
2022-08-23T10:17:22.648Z,1271
2022-08-23T10:51:31.314Z,1470
2022-08-23T10:52:22.645Z,1515
2022-08-23T10:53:22.654Z,1373
2022-08-23T10:54:22.674Z,1485
2022-08-23T10:55:22.659Z,1644
2022-08-23T10:56:22.669Z,1544
2022-08-23T10:57:22.661Z,1551
2022-08-23T10:58:22.660Z,1607
2022-08-23T10:59:22.647Z,1609
2022-08-23T11:00:22.669Z,1609
2022-08-23T11:01:22.725Z,1695
2022-08-23T11:02:22.697Z,1896
2022-08-23T11:03:26.902Z,2057
2022-08-23T11:04:22.648Z,2232
2022-08-23T11:05:22.656Z,2235
2022-08-23T11:06:22.664Z,2300
2022-08-23T11:07:22.645Z,2285
2022-08-23T11:08:22.651Z,2350
2022-08-23T11:09:22.692Z,2615
2022-08-23T11:10:22.641Z,2615
2022-08-23T11:11:22.670Z,2294
2022-08-23T11:12:22.660Z,2219
2022-08-23T11:13:22.656Z,2086
2022-08-23T11:14:22.653Z,1979
2022-08-23T11:15:22.654Z,2117
2022-08-23T11:16:22.646Z,2066
2022-08-23T11:17:22.659Z,1878
2022-08-23T11:18:22.646Z,1786
2022-08-23T11:19:22.665Z,1802
2022-08-23T11:20:22.668Z,1802
2022-08-23T11:21:22.658Z,1861
2022-08-23T11:22:22.663Z,1751
2022-08-23T11:23:22.647Z,1666
2022-08-23T11:24:22.674Z,1570
2022-08-23T11:25:22.653Z,1570
2022-08-23T11:26:22.659Z,1535
2022-08-23T11:27:22.647Z,1435
2022-08-23T11:28:22.650Z,1470
2022-08-23T11:29:22.669Z,1428
2022-08-23T11:30:22.679Z,1428
2022-08-23T11:31:22.709Z,1424
2022-08-23T11:32:24.280Z,1522
2022-08-23T11:33:22.656Z,1587
2022-08-23T11:34:29.500Z,1476
2022-08-23T11:35:22.661Z,1476
2022-08-23T11:36:22.729Z,1574
2022-08-23T11:37:23.468Z,1623
2022-08-23T11:38:22.792Z,1655
2022-08-23T11:39:25.298Z,1668
2022-08-23T11:40:22.679Z,1668
2022-08-23T11:41:22.680Z,1782
2022-08-23T11:42:22.663Z,1821
2022-08-23T11:43:22.667Z,1747
2022-08-23T11:44:22.672Z,1706
2022-08-23T11:45:22.677Z,1712
2022-08-23T11:46:22.737Z,1835
2022-08-23T11:47:22.654Z,1889
2022-08-23T11:48:22.659Z,1889
2022-08-23T11:49:22.669Z,1889
2022-08-23T11:50:22.655Z,1889
2022-08-23T11:51:22.671Z,2110
2022-08-23T11:52:22.673Z,2263
2022-08-23T11:53:22.665Z,2320
2022-08-23T11:54:22.687Z,2355
2022-08-23T11:55:22.654Z,2283
2022-08-23T11:56:22.672Z,2245
2022-08-23T11:57:22.662Z,2147
2022-08-23T12:28:22.684Z,2302
2022-08-23T12:59:41.848Z,2683
2022-08-23T13:00:40.736Z,2809
2022-08-23T13:01:40.756Z,3021
2022-08-23T13:02:40.808Z,3118
2022-08-23T13:03:40.719Z,3186
2022-08-23T13:04:40.714Z,3221
2022-08-23T13:05:40.710Z,3345
2022-08-23T13:06:40.753Z,3164
2022-08-23T13:08:34.625Z,2558
2022-08-23T13:09:26.332Z,2543
2022-08-23T13:10:26.351Z,2543
2022-08-23T13:11:26.277Z,2974
2022-08-23T13:12:26.278Z,2869
2022-08-23T13:13:26.276Z,3122
2022-08-23T13:14:26.312Z,3271
2022-08-23T13:15:26.341Z,3253
2022-08-23T13:16:27.344Z,3314
2022-08-23T13:17:26.284Z,3566
2022-08-23T13:18:26.267Z,3618
2022-08-23T13:19:26.283Z,3634
2022-08-23T13:20:26.318Z,3634
2022-08-23T13:21:26.264Z,3526
2022-08-23T13:22:26.268Z,3166
2022-08-23T13:23:26.267Z,3043
2022-08-23T13:24:37.890Z,3240
2022-08-23T13:25:31.157Z,3177
2022-08-23T13:26:26.939Z,3299
2022-08-23T13:27:26.271Z,3209
2022-08-23T13:28:26.270Z,3579
2022-08-23T13:29:26.284Z,3113
2022-08-23T13:30:26.267Z,3113
2022-08-23T13:31:26.300Z,3166
2022-08-23T13:32:27.044Z,3704
2022-08-23T13:33:26.264Z,3835
2022-08-23T13:34:26.283Z,3588
2022-08-23T13:35:26.271Z,3588
2022-08-23T13:36:26.278Z,3301
2022-08-23T13:37:26.272Z,3286
2022-08-23T13:38:26.263Z,3120
2022-08-23T13:39:26.291Z,3214
2022-08-23T13:40:26.336Z,2950
2022-08-23T13:41:26.260Z,2923
2022-08-23T13:42:26.265Z,2674
2022-08-23T13:43:26.262Z,2790
2022-08-23T13:44:26.288Z,2648
2022-08-23T13:45:26.266Z,2254
2022-08-23T13:46:26.755Z,2344
2022-08-23T13:47:26.263Z,2243
2022-08-23T13:48:26.264Z,2261
2022-08-23T13:49:26.275Z,2261
2022-08-23T13:50:26.274Z,2261
2022-08-23T13:51:26.267Z,2525
2022-08-23T13:52:51.032Z,2182
2022-08-23T13:53:26.332Z,1927
2022-08-23T13:54:26.273Z,1992
2022-08-23T13:55:26.275Z,2145
2022-08-23T13:56:26.269Z,2189
2022-08-23T13:57:29.979Z,1981
2022-08-23T13:58:26.266Z,1752
2022-08-23T13:59:26.848Z,1920
2022-08-23T14:00:26.285Z,1920
2022-08-23T14:01:26.314Z,1907
2022-08-23T14:02:26.273Z,1990
2022-08-23T14:03:26.287Z,1874
2022-08-23T14:04:26.257Z,1861
2022-08-23T14:05:26.298Z,1966
2022-08-23T14:06:26.291Z,2034
2022-08-23T14:07:26.269Z,1950
2022-08-23T14:08:26.274Z,2145
2022-08-23T14:09:26.269Z,2058
2022-08-23T14:10:26.270Z,2058
2022-08-23T14:11:26.251Z,2438
2022-08-23T14:12:27.578Z,2281
2022-08-23T14:13:26.268Z,2141
2022-08-23T14:14:26.263Z,2178
2022-08-23T14:15:56.517Z,2256
2022-08-23T14:16:34.256Z,2315
2022-08-23T14:17:26.288Z,1911
2022-08-23T14:18:26.272Z,1699
2022-08-23T14:20:31.019Z,1920
2022-08-23T14:20:43.578Z,1920
2022-08-23T14:21:26.266Z,1846
2022-08-23T14:22:26.254Z,1649
2022-08-23T14:23:26.270Z,1542
2022-08-23T14:24:26.899Z,1625
2022-08-23T14:25:26.251Z,1833
2022-08-23T14:26:26.263Z,1808
2022-08-23T14:27:26.262Z,1762
2022-08-23T14:28:26.271Z,1837
2022-08-23T14:29:26.274Z,1704
2022-08-23T14:30:29.513Z,1704
2022-08-23T14:31:26.274Z,1592
2022-08-23T14:32:26.268Z,1610
2022-08-23T14:33:26.275Z,1472
2022-08-23T14:34:26.256Z,1472
2022-08-23T14:35:26.255Z,1472
2022-08-23T14:36:26.433Z,1406
2022-08-23T14:38:26.273Z,1299
2022-08-23T14:39:26.269Z,1124
2022-08-23T14:40:26.312Z,1124
2022-08-23T14:41:26.258Z,1122
2022-08-23T14:42:26.265Z,1115
2022-08-23T14:43:26.938Z,1046
2022-08-23T14:44:30.181Z,928
2022-08-23T14:45:26.260Z,905
2022-08-23T14:46:26.367Z,888
2022-08-23T14:47:26.268Z,831
2022-08-23T14:48:26.272Z,709
2022-08-23T14:49:26.265Z,709
2022-08-23T14:50:28.235Z,709
2022-08-23T14:51:26.258Z,606
2022-08-23T14:52:26.253Z,650
2022-08-23T14:53:26.360Z,698
2022-08-23T14:54:26.271Z,689
2022-08-23T14:55:26.254Z,720
2022-08-23T14:56:26.252Z,713
2022-08-23T14:57:26.258Z,711
2022-08-23T14:58:26.269Z,731
2022-08-23T14:59:26.446Z,783
2022-08-23T15:00:26.253Z,844
2022-08-23T15:01:26.381Z,807
2022-08-23T15:02:26.253Z,807
2022-08-23T15:03:26.340Z,906
2022-08-23T15:04:30.409Z,851
2022-08-23T15:05:26.259Z,803
2022-08-23T15:06:26.244Z,927
2022-08-23T15:07:26.258Z,886
2022-08-23T15:08:26.262Z,796
2022-08-23T15:09:26.255Z,846
2022-08-23T15:10:51.299Z,846
2022-08-23T15:13:32.905Z,886
2022-08-23T15:14:26.283Z,956
2022-08-23T15:15:26.260Z,956
2022-08-23T15:16:26.320Z,840
2022-08-23T15:17:31.223Z,812
2022-08-23T15:18:26.265Z,812
2022-08-23T15:19:26.248Z,871
2022-08-23T15:20:26.253Z,871
2022-08-23T15:21:26.245Z,925
2022-08-23T15:22:26.272Z,958
2022-08-23T15:23:26.263Z,925
2022-08-23T15:24:26.252Z,910
2022-08-23T15:25:26.278Z,1076
2022-08-23T15:26:26.245Z,1183
2022-08-23T15:27:26.250Z,1271
2022-08-23T15:28:26.248Z,1301
2022-08-23T15:29:26.260Z,1297
2022-08-23T15:30:26.355Z,1297
2022-08-23T15:31:26.259Z,1716
2022-08-23T15:32:26.263Z,1572
2022-08-23T15:33:29.564Z,1411
2022-08-23T15:34:26.252Z,1900
2022-08-23T15:35:26.245Z,1957
2022-08-23T15:36:26.254Z,2173
2022-08-23T15:37:26.247Z,1975
2022-08-23T15:38:26.270Z,1963
2022-08-23T15:39:26.256Z,1926
2022-08-23T15:40:26.346Z,1926
2022-08-23T15:41:26.262Z,1786
2022-08-23T15:42:26.292Z,1767
2022-08-23T15:43:33.938Z,1889
2022-08-23T15:44:26.269Z,2007
2022-08-23T15:45:26.254Z,1977
2022-08-23T15:46:26.276Z,1931
2022-08-23T15:47:26.251Z,1957
2022-08-23T15:48:26.268Z,1806
2022-08-23T15:49:26.256Z,1806
2022-08-23T15:50:26.256Z,1806
2022-08-23T15:51:26.251Z,1658
2022-08-23T15:52:26.251Z,1598
2022-08-23T15:53:26.268Z,1610
2022-08-23T15:54:26.251Z,1561
2022-08-23T15:55:26.255Z,1883
2022-08-23T15:56:26.250Z,1822
2022-08-23T15:57:27.941Z,1590
2022-08-23T15:58:26.276Z,1351
2022-08-23T15:59:26.269Z,1129
2022-08-23T16:00:26.270Z,1129
2022-08-23T16:01:26.283Z,1341
2022-08-23T16:02:26.293Z,1083
2022-08-23T16:03:26.301Z,1116
2022-08-23T16:04:26.253Z,1107
2022-08-23T16:05:26.254Z,1065
2022-08-23T16:06:26.258Z,997
2022-08-23T16:07:26.250Z,916
2022-08-23T16:08:26.332Z,840
2022-08-23T16:09:26.278Z,951
2022-08-23T16:10:26.278Z,951
2022-08-23T16:11:26.248Z,921
2022-08-23T16:12:26.254Z,888
2022-08-23T16:13:26.452Z,783
2022-08-23T16:14:26.265Z,713
2022-08-23T16:15:26.255Z,713
2022-08-23T16:16:26.364Z,593
2022-08-23T16:17:26.294Z,646
2022-08-23T16:18:26.305Z,639
2022-08-23T16:19:26.292Z,711
2022-08-23T16:20:26.302Z,659
2022-08-23T16:21:26.319Z,589
2022-08-23T16:22:26.285Z,529
2022-08-23T16:23:26.309Z,615
2022-08-23T16:24:26.298Z,621
2022-08-23T16:25:26.259Z,632
2022-08-23T16:26:30.881Z,621
2022-08-23T16:27:26.248Z,545
2022-08-23T16:28:26.263Z,438
2022-08-23T16:29:26.261Z,460
2022-08-23T16:30:26.288Z,460
2022-08-23T16:31:39.056Z,364
2022-08-23T16:32:26.254Z,385
2022-08-23T16:33:26.269Z,381
2022-08-23T16:34:26.250Z,398
2022-08-23T16:35:26.248Z,444
2022-08-23T16:36:30.148Z,427
2022-08-23T16:37:26.260Z,420
2022-08-23T16:38:26.268Z,374
2022-08-23T16:39:26.251Z,335
2022-08-23T16:40:26.317Z,335
2022-08-23T16:41:26.253Z,372
2022-08-23T16:42:26.266Z,388
2022-08-23T16:43:26.259Z,436
2022-08-23T16:44:26.265Z,414
2022-08-23T16:45:26.560Z,392
2022-08-23T16:46:26.376Z,423
2022-08-23T16:47:26.280Z,409
2022-08-23T16:48:26.263Z,435
2022-08-23T16:49:26.245Z,435
2022-08-23T16:50:26.262Z,435
2022-08-23T16:51:26.255Z,435
2022-08-23T16:52:35.025Z,462
2022-08-23T16:53:26.271Z,477
2022-08-23T16:54:26.256Z,455
2022-08-23T16:55:26.257Z,527
2022-08-23T16:56:26.258Z,576
2022-08-23T16:57:26.257Z,543
2022-08-23T16:58:26.267Z,569
2022-08-23T16:59:26.305Z,593
2022-08-23T17:00:26.253Z,593
2022-08-23T17:01:26.319Z,669
2022-08-23T17:02:26.268Z,621
2022-08-23T17:03:27.241Z,534
2022-08-23T17:04:30.328Z,611
2022-08-23T17:05:26.249Z,611
2022-08-23T17:06:26.262Z,687
2022-08-23T17:07:26.247Z,713
2022-08-23T17:08:26.251Z,759
2022-08-23T17:09:26.249Z,737
2022-08-23T17:10:26.250Z,737
2022-08-23T17:11:29.900Z,696
2022-08-23T17:12:26.251Z,659
2022-08-23T17:13:26.256Z,648
2022-08-23T17:14:26.283Z,661
2022-08-23T17:15:26.254Z,661
2022-08-23T17:16:26.369Z,792
2022-08-23T17:17:26.245Z,858
2022-08-23T17:18:26.260Z,833
2022-08-23T17:19:26.254Z,807
2022-08-23T17:20:26.248Z,807
2022-08-23T17:21:26.261Z,639
2022-08-23T17:22:26.250Z,595
2022-08-23T17:23:26.266Z,587
2022-08-23T17:24:26.255Z,619
2022-08-23T17:25:26.295Z,619
2022-08-23T17:26:26.253Z,540
2022-08-23T17:27:26.249Z,530
2022-08-23T17:28:26.267Z,514
2022-08-23T17:29:26.262Z,497
2022-08-23T17:30:26.248Z,497
2022-08-23T17:31:26.293Z,427
2022-08-23T17:32:26.256Z,361
2022-08-23T17:33:26.264Z,326
2022-08-23T17:34:26.255Z,282
2022-08-23T17:35:26.270Z,239
2022-08-23T17:36:26.246Z,200
2022-08-23T17:37:26.251Z,152
2022-08-23T17:38:26.266Z,121
2022-08-23T17:39:26.259Z,103
2022-08-23T17:40:26.332Z,103
2022-08-23T17:41:26.248Z,75
2022-08-23T17:42:26.247Z,70
2022-08-23T17:43:26.262Z,75
2022-08-23T17:44:26.260Z,86
2022-08-23T17:45:26.289Z,86
2022-08-23T17:46:26.255Z,92
2022-08-23T17:47:26.253Z,82
2022-08-23T17:48:26.246Z,64
2022-08-23T17:49:26.251Z,64
2022-08-23T17:50:26.249Z,64
2022-08-23T17:51:26.251Z,46
2022-08-23T17:52:26.247Z,47
2022-08-23T17:53:26.261Z,46
2022-08-23T17:54:26.251Z,42
2022-08-23T17:55:26.254Z,38
2022-08-23T17:56:26.255Z,31
2022-08-23T17:57:26.248Z,25
2022-08-23T17:58:26.253Z,25
2022-08-23T17:59:26.493Z,25
2022-08-23T18:00:26.260Z,25
2022-08-23T18:01:26.298Z,27
2022-08-23T18:02:26.240Z,27
2022-08-23T18:03:26.256Z,31
2022-08-23T18:04:26.320Z,29
2022-08-23T18:05:26.306Z,29
2022-08-23T18:06:26.235Z,22
2022-08-23T18:07:26.249Z,20
2022-08-23T18:08:26.254Z,14
2022-08-23T18:09:26.246Z,12
2022-08-23T18:10:26.249Z,12
2022-08-23T18:11:26.250Z,11
2022-08-23T18:12:26.249Z,7
2022-08-23T18:13:26.259Z,3
2022-08-23T18:14:26.271Z,3
2022-08-23T18:15:26.250Z,3
2022-08-23T18:16:26.298Z,1
2022-08-23T18:17:26.252Z,1
2022-08-23T18:18:26.246Z,1
2022-08-23T18:19:26.253Z,1
2022-08-23T18:20:26.246Z,1
2022-08-23T18:21:26.252Z,0
2022-08-23T18:22:26.251Z,0
2022-08-23T18:23:26.266Z,0
2022-08-23T18:24:26.243Z,0
2022-08-23T18:25:51.577Z,0
2022-08-23T18:26:49.945Z,0
2022-08-23T18:27:49.937Z,0
2022-08-23T18:28:49.946Z,0
2022-08-23T18:29:51.525Z,0
2022-08-23T18:30:49.941Z,0
2022-08-23T18:31:49.971Z,0
2022-08-23T18:32:49.938Z,0
2022-08-23T18:33:49.936Z,0
2022-08-23T18:34:49.929Z,0
2022-08-23T18:36:25.035Z,0
2022-08-23T18:38:50.834Z,0
2022-08-23T18:40:53.009Z,0
2022-08-23T18:41:51.892Z,0
2022-08-23T18:43:37.616Z,0
2022-08-23T18:44:30.756Z,0
2022-08-23T18:45:30.787Z,0
2022-08-23T18:47:31.223Z,0
2022-08-23T18:49:21.979Z,0
2022-08-23T18:50:21.135Z,0
2022-08-23T18:51:20.941Z,0
2022-08-23T18:52:20.933Z,0
2022-08-23T18:53:20.930Z,0
2022-08-23T18:54:20.929Z,0
2022-08-23T18:55:20.933Z,0
2022-08-23T18:56:20.925Z,0
2022-08-23T18:57:20.930Z,0
2022-08-23T18:58:20.995Z,0
2022-08-23T18:59:21.013Z,0
2022-08-23T19:00:20.985Z,0
2022-08-23T19:01:21.078Z,0
2022-08-23T19:02:21.137Z,0
2022-08-23T19:03:20.930Z,0
2022-08-23T19:04:20.927Z,0
2022-08-23T19:05:20.910Z,0
2022-08-23T19:06:20.927Z,0
2022-08-23T19:07:20.926Z,0
2022-08-23T19:08:20.926Z,0
2022-08-23T19:09:20.926Z,0
2022-08-23T19:10:20.901Z,0
2022-08-23T19:11:20.922Z,0
2022-08-23T19:12:20.925Z,0
2022-08-23T19:13:20.916Z,0
2022-08-23T19:14:20.935Z,0
2022-08-23T19:15:20.915Z,0
2022-08-23T19:16:21.588Z,0
2022-08-23T19:17:20.922Z,0
2022-08-23T19:18:20.921Z,0
2022-08-23T19:19:20.928Z,0
2022-08-23T19:20:20.908Z,0
2022-08-23T19:21:20.921Z,0
2022-08-23T19:22:20.989Z,0
2022-08-23T19:23:20.921Z,0
2022-08-23T19:24:21.004Z,0
2022-08-23T19:25:20.902Z,0
2022-08-23T19:26:20.920Z,0
2022-08-23T19:27:20.924Z,0
2022-08-23T19:28:20.920Z,0
2022-08-23T19:29:20.931Z,0
2022-08-23T19:30:20.919Z,0
2022-08-23T19:31:20.992Z,0
2022-08-23T19:32:20.952Z,0
2022-08-23T19:33:20.922Z,0
2022-08-23T19:34:20.942Z,0
2022-08-23T19:35:20.905Z,0
2022-08-23T19:36:44.746Z,0
2022-08-23T19:37:22.790Z,0
2022-08-23T19:38:20.902Z,0
2022-08-23T19:39:20.913Z,0
2022-08-23T19:40:20.928Z,0
2022-08-23T19:41:20.896Z,0
2022-08-23T19:42:20.910Z,0
2022-08-23T19:43:20.910Z,0
2022-08-23T19:44:20.910Z,0
2022-08-23T19:45:20.920Z,0
2022-08-23T19:46:20.915Z,0
2022-08-23T19:47:21.608Z,0
2022-08-23T19:48:20.906Z,0
2022-08-23T19:49:20.902Z,0
2022-08-23T19:50:24.378Z,0
2022-08-23T19:51:20.905Z,0
2022-08-23T19:52:20.920Z,0
2022-08-23T19:53:20.922Z,0
2022-08-23T19:54:20.914Z,0
2022-08-23T19:55:20.897Z,0
2022-08-23T19:56:20.920Z,0
2022-08-23T19:57:20.914Z,0
2022-08-23T19:58:20.928Z,0
2022-08-23T19:59:20.920Z,0
2022-08-23T20:00:20.921Z,0
2022-08-23T20:01:21.029Z,0
2022-08-23T20:02:20.985Z,0
2022-08-23T20:03:20.928Z,0
2022-08-23T20:04:20.921Z,0
2022-08-23T20:05:20.919Z,0
2022-08-23T20:06:20.919Z,0
2022-08-23T20:07:20.919Z,0
2022-08-23T20:08:20.959Z,0
2022-08-23T20:09:20.918Z,0
2022-08-23T20:10:20.920Z,0
2022-08-23T20:11:20.926Z,0
2022-08-23T20:12:20.917Z,0
2022-08-23T20:13:20.932Z,0
2022-08-23T20:14:20.922Z,0
2022-08-23T20:15:20.909Z,0
2022-08-23T20:16:20.952Z,0
2022-08-23T20:17:20.922Z,0
2022-08-23T20:18:20.921Z,0
2022-08-23T20:19:20.923Z,0
2022-08-23T20:20:20.930Z,0
2022-08-23T20:21:23.930Z,0
2022-08-23T20:22:20.911Z,0
2022-08-23T20:23:20.922Z,0
2022-08-23T20:24:37.358Z,0
2022-08-23T20:25:20.912Z,0
2022-08-23T20:26:20.922Z,0
2022-08-23T20:27:25.434Z,0
2022-08-23T20:28:25.747Z,0
2022-08-23T20:29:20.913Z,0
